Coppermine, Canada
Current Conditions -  °F | °C
As of 9:00 AM on Thursday 30 Oct 2014 (Local Time) from CYCO Reporting Station
Blowing Snow Blowing Snow  
Wind Chill: 15°   Ceiling: 2500
Heat Index: 28°   Visibility: 15mi
Dew Point: 25°   Wind: 20mph
Humidity: 86%   Direction: 180°S
Pressure: 29.88"   Gusts: NA
Location:  67.83°N, 115.08°W
Report Text: CYCO 301500Z 18017KT 15SM DRSN OVC025 M02/M04 A2988 RMK SC8SLP122
Loading
Personal Weather Stations






























Interactive Weather Map New forecast layout! Learn more

10-Day Weather Forecast

Advertisements
Track Severe Weather on mobile